Time;durP1;ratioP1;P1;durP2;ratioP2;P2;SDS_P1;SDS_P2;PMS_P1;PMS_P2;Temp;Humidity;BMP_temperature;BMP_pressure;BME280_temperature;BME280_humidity;BME280_pressure;Samples;Min_cycle;Max_cycle;Signal;HPM_P1;HPM_P2
2022/03/03 00:00:14;;;;;;;9.23;4.93;;;;;;;15.06;21.09;99230.50;5092053;28;20452;-68
2022/03/03 00:02:41;;;;;;;8.75;3.78;;;;;;;14.90;21.45;99224.09;5093105;28;20042;-68
2022/03/03 00:05:08;;;;;;;7.97;4.68;;;;;;;15.17;21.50;99224.91;5096380;28;20376;-68
2022/03/03 00:07:33;;;;;;;5.70;3.55;;;;;;;15.62;21.25;99211.44;5094960;28;20115;-65
2022/03/03 00:09:59;;;;;;;8.80;3.70;;;;;;;16.04;21.27;99213.22;5096356;28;20122;-66
2022/03/03 00:12:25;;;;;;;10.07;4.35;;;;;;;16.42;20.80;99205.56;5087032;28;20036;-67
2022/03/03 00:14:50;;;;;;;8.05;3.60;;;;;;;16.76;20.76;99211.75;5076969;28;20024;-66
2022/03/03 00:17:16;;;;;;;5.32;3.42;;;;;;;17.02;20.79;99198.16;5079325;28;20056;-68
2022/03/03 00:19:42;;;;;;;6.43;3.25;;;;;;;17.28;20.70;99197.09;5076168;28;20036;-67
2022/03/03 00:22:09;;;;;;;5.35;3.33;;;;;;;17.48;20.82;99194.00;5079433;28;20043;-68
2022/03/03 00:24:34;;;;;;;10.73;4.57;;;;;;;17.67;20.61;99188.22;5092714;28;20036;-68
2022/03/03 00:27:00;;;;;;;10.15;4.38;;;;;;;17.87;20.36;99186.94;5095742;28;20082;-67
2022/03/03 00:29:25;;;;;;;5.28;3.28;;;;;;;18.02;20.33;99181.69;5096179;28;20576;-68
2022/03/03 00:31:51;;;;;;;6.53;4.40;;;;;;;18.12;20.06;99176.94;5096122;28;20376;-68
2022/03/03 00:34:17;;;;;;;7.75;3.47;;;;;;;18.21;20.05;99159.78;5096472;28;20039;-68
2022/03/03 00:36:42;;;;;;;4.75;3.42;;;;;;;18.32;19.98;99168.41;5096062;28;20032;-69
2022/03/03 00:39:08;;;;;;;6.38;3.17;;;;;;;18.40;20.09;99171.84;5095316;28;20062;-69
2022/03/03 00:41:34;;;;;;;5.95;3.00;;;;;;;18.50;20.10;99170.78;5095532;28;20127;-69
2022/03/03 00:43:59;;;;;;;4.82;2.97;;;;;;;18.59;19.91;99175.03;5095282;28;20036;-69
2022/03/03 00:46:25;;;;;;;4.95;3.30;;;;;;;18.62;19.96;99166.63;5096355;28;20040;-67
2022/03/03 00:48:52;;;;;;;6.03;3.63;;;;;;;18.74;19.74;99167.03;5095657;28;20043;-69
2022/03/03 00:51:18;;;;;;;5.05;3.45;;;;;;;18.80;19.83;99163.59;5096063;28;20390;-69
2022/03/03 00:53:43;;;;;;;6.43;3.70;;;;;;;18.85;19.86;99161.22;5095824;28;20475;-68
2022/03/03 00:56:09;;;;;;;5.00;3.35;;;;;;;18.84;19.92;99162.22;5095599;28;20032;-68
2022/03/03 00:58:35;;;;;;;4.60;3.42;;;;;;;18.78;19.92;99157.59;5095805;28;20062;-66
2022/03/03 01:01:01;;;;;;;5.03;2.90;;;;;;;18.75;19.81;99148.06;5084643;28;20039;-69
2022/03/03 01:03:28;;;;;;;5.65;3.35;;;;;;;18.69;20.10;99148.78;5093348;28;20489;-69
2022/03/03 01:08:51;;;;;;;4.68;3.25;;;;;;;18.59;20.24;99142.88;5371656;22;20060;-70
2022/03/03 01:11:17;;;;;;;12.18;2.95;;;;;;;18.54;20.34;99140.75;5053406;28;20049;-68
2022/03/03 01:13:42;;;;;;;5.88;3.08;;;;;;;18.54;20.12;99142.59;5033316;28;20400;-69
2022/03/03 01:16:08;;;;;;;7.53;3.30;;;;;;;18.50;20.21;99139.44;5035240;28;20033;-69
2022/03/03 01:18:33;;;;;;;4.97;3.30;;;;;;;18.43;20.20;99136.66;5035048;28;20033;-68
2022/03/03 01:20:59;;;;;;;5.47;3.25;;;;;;;18.47;20.24;99133.63;5035498;28;20029;-69
2022/03/03 01:23:25;;;;;;;7.10;2.97;;;;;;;18.46;20.22;99140.81;5034235;28;20037;-68
2022/03/03 01:25:50;;;;;;;7.05;3.28;;;;;;;18.44;20.37;99129.47;5034750;28;20374;-68
2022/03/03 01:28:16;;;;;;;8.07;3.58;;;;;;;18.44;20.43;99116.09;5034939;28;20080;-69
2022/03/03 01:30:41;;;;;;;6.13;3.35;;;;;;;18.43;20.36;99122.44;5035146;28;20045;-68
2022/03/03 01:33:07;;;;;;;8.07;3.33;;;;;;;18.41;20.38;99117.25;5034679;28;20108;-68
2022/03/03 01:35:33;;;;;;;6.85;3.22;;;;;;;18.39;20.21;99119.28;5035092;28;20040;-67
2022/03/03 01:37:59;;;;;;;6.30;3.17;;;;;;;18.38;20.49;99114.13;5034036;28;20029;-68
2022/03/03 01:40:25;;;;;;;8.55;3.13;;;;;;;18.35;20.34;99112.66;5035065;28;20091;-69
2022/03/03 01:42:51;;;;;;;6.82;3.95;;;;;;;18.36;20.47;99103.59;5034625;28;20030;-68
2022/03/03 01:45:17;;;;;;;3.53;2.65;;;;;;;18.36;20.50;99106.28;5034587;28;20030;-68
2022/03/03 01:47:42;;;;;;;7.03;3.60;;;;;;;18.36;20.32;99098.25;5034450;28;20033;-68
2022/03/03 01:50:08;;;;;;;5.88;3.45;;;;;;;18.38;20.37;99088.16;5034826;28;20065;-68
2022/03/03 01:52:34;;;;;;;7.00;3.00;;;;;;;18.40;20.37;99088.81;5033791;28;20017;-68
2022/03/03 01:54:59;;;;;;;5.75;3.13;;;;;;;18.41;20.41;99090.47;5034449;28;20358;-69
2022/03/03 01:57:25;;;;;;;5.93;2.95;;;;;;;18.44;20.38;99081.25;5034255;28;20033;-69
2022/03/03 01:59:51;;;;;;;7.20;3.67;;;;;;;18.43;20.38;99085.75;5034574;28;20033;-67
2022/03/03 02:02:17;;;;;;;4.45;2.60;;;;;;;18.44;20.53;99082.06;5034129;28;20488;-70
2022/03/03 02:04:42;;;;;;;5.53;3.50;;;;;;;18.43;20.46;99071.56;5034172;28;20517;-69
2022/03/03 02:07:10;;;;;;;9.60;3.28;;;;;;;18.44;20.25;99075.91;5034240;28;20060;-68
2022/03/03 02:09:36;;;;;;;7.38;3.88;;;;;;;18.40;20.17;99066.56;5034399;28;20045;-68
2022/03/03 02:12:02;;;;;;;8.90;3.38;;;;;;;18.40;20.46;99071.91;5034351;28;20380;-68
2022/03/03 02:14:28;;;;;;;7.00;3.05;;;;;;;18.39;20.65;99059.53;5034284;28;20029;-69
2022/03/03 02:16:54;;;;;;;6.57;2.95;;;;;;;18.39;20.63;99059.53;5034177;28;20623;-68
2022/03/03 02:19:20;;;;;;;5.60;3.35;;;;;;;18.38;20.44;99057.88;5033789;28;20083;-69
2022/03/03 02:21:51;;;;;;;6.60;3.05;;;;;;;18.35;20.62;99053.72;5033630;28;20069;-67
2022/03/03 02:24:18;;;;;;;5.88;3.55;;;;;;;18.35;20.51;99055.56;5032545;28;20603;-68
2022/03/03 02:26:45;;;;;;;4.95;2.90;;;;;;;18.34;20.59;99051.22;5033907;28;20033;-69
2022/03/03 02:29:11;;;;;;;6.55;3.33;;;;;;;18.33;20.79;99057.56;5034018;28;20033;-68
2022/03/03 02:31:36;;;;;;;4.53;2.90;;;;;;;18.30;20.61;99059.63;5033542;28;20392;-67
2022/03/03 02:34:02;;;;;;;9.75;3.15;;;;;;;18.28;20.73;99058.97;5033674;28;20416;-68
2022/03/03 02:36:29;;;;;;;7.75;4.45;;;;;;;18.30;20.60;99062.31;5033511;28;20029;-68
2022/03/03 02:39:05;;;;;;;6.90;3.35;;;;;;;18.30;20.75;99062.31;5033773;28;20034;-68
2022/03/03 02:41:31;;;;;;;6.35;3.30;;;;;;;18.31;20.59;99057.78;5033682;28;20167;-67
2022/03/03 02:43:59;;;;;;;4.10;3.00;;;;;;;18.32;20.51;99061.28;5033412;28;20033;-69
2022/03/03 02:46:24;;;;;;;8.73;3.50;;;;;;;18.29;20.75;99060.66;5033589;28;20037;-68
2022/03/03 02:48:50;;;;;;;7.47;3.70;;;;;;;18.29;20.71;99060.66;5033135;28;20563;-67
2022/03/03 02:51:16;;;;;;;9.40;3.60;;;;;;;18.28;20.70;99050.94;5033492;28;20041;-67
2022/03/03 02:53:42;;;;;;;5.32;3.15;;;;;;;18.27;20.33;99049.28;5032808;28;20408;-67
2022/03/03 02:56:08;;;;;;;6.68;3.40;;;;;;;18.27;20.62;99043.94;5033242;28;20041;-67
2022/03/03 02:58:34;;;;;;;4.93;3.17;;;;;;;18.26;20.79;99039.59;5033179;28;20075;-68
2022/03/03 03:01:00;;;;;;;5.07;2.95;;;;;;;18.25;20.89;99026.34;5033123;28;20420;-68
2022/03/03 03:03:26;;;;;;;7.18;3.58;;;;;;;18.24;20.82;99025.53;5032655;28;20400;-68
2022/03/03 03:05:52;;;;;;;5.95;3.72;;;;;;;18.26;21.02;99022.66;5032969;28;20052;-68
2022/03/03 03:08:18;;;;;;;7.70;3.92;;;;;;;18.26;21.08;99020.84;5033060;28;20491;-68
2022/03/03 03:10:44;;;;;;;7.55;3.63;;;;;;;18.27;20.78;99017.16;5032867;28;20069;-67
2022/03/03 03:13:14;;;;;;;10.70;3.55;;;;;;;18.28;20.90;99017.97;5032541;28;20047;-67
2022/03/03 03:15:40;;;;;;;7.05;4.15;;;;;;;18.26;20.95;99007.44;5032674;28;20025;-67
2022/03/03 03:18:18;;;;;;;5.82;3.75;;;;;;;18.28;20.94;99010.78;5033108;28;20455;-67
2022/03/03 03:20:46;;;;;;;9.07;4.78;;;;;;;18.28;20.84;99007.25;5032673;28;20402;-67
2022/03/03 03:23:13;;;;;;;7.78;2.65;;;;;;;18.28;21.16;98993.84;5032652;28;20091;-67
2022/03/03 03:25:43;;;;;;;6.25;3.53;;;;;;;18.29;21.04;99004.41;5032918;28;20068;-68
2022/03/03 03:28:09;;;;;;;8.18;3.17;;;;;;;18.25;21.37;99000.44;5032274;28;20091;-68
2022/03/03 03:30:35;;;;;;;4.13;2.75;;;;;;;18.27;21.29;98993.03;5044275;28;20033;-68
2022/03/03 03:33:00;;;;;;;5.30;2.80;;;;;;;18.28;21.33;98994.72;5051932;28;20047;-68
2022/03/03 03:35:26;;;;;;;6.55;3.53;;;;;;;18.28;21.13;99005.41;5052850;28;20025;-69
2022/03/03 03:37:51;;;;;;;6.50;3.60;;;;;;;18.27;21.21;98998.41;5050721;28;20037;-69
2022/03/03 03:40:18;;;;;;;5.18;2.88;;;;;;;18.27;21.19;98995.72;5023518;28;20026;-68
2022/03/03 03:42:43;;;;;;;7.20;3.20;;;;;;;18.25;21.29;98988.88;5028266;28;20029;-69
2022/03/03 03:45:10;;;;;;;7.03;3.33;;;;;;;18.30;21.19;98999.88;5032202;28;20040;-69
2022/03/03 03:47:36;;;;;;;5.32;3.85;;;;;;;18.29;21.27;98993.69;5031483;28;20036;-68
2022/03/03 03:50:02;;;;;;;8.05;3.50;;;;;;;18.28;21.20;98989.34;5032079;28;20029;-70
2022/03/03 03:52:29;;;;;;;6.20;3.80;;;;;;;18.28;21.16;98992.03;5032130;28;20516;-70
2022/03/03 03:54:55;;;;;;;10.10;3.55;;;;;;;18.29;21.25;98993.69;5032261;28;20036;-70
2022/03/03 03:57:21;;;;;;;6.22;3.53;;;;;;;18.31;21.23;98988.13;5032381;28;20038;-69
2022/03/03 03:59:47;;;;;;;8.45;3.33;;;;;;;18.30;21.34;98986.47;5032917;28;20210;-69
2022/03/03 04:02:12;;;;;;;6.50;3.97;;;;;;;18.29;21.50;98980.31;5031984;28;20073;-68
2022/03/03 04:04:38;;;;;;;7.18;3.20;;;;;;;18.27;21.27;98981.47;5032321;28;20029;-68
2022/03/03 04:07:03;;;;;;;5.22;3.05;;;;;;;18.27;21.33;98976.13;5031818;28;20145;-71
2022/03/03 04:09:29;;;;;;;8.25;4.03;;;;;;;18.24;21.40;98971.13;5032181;28;20523;-67
2022/03/03 04:11:54;;;;;;;11.15;3.60;;;;;;;18.24;21.26;98973.81;5031679;28;20104;-69
2022/03/03 04:14:20;;;;;;;13.93;4.18;;;;;;;18.24;21.26;98966.63;5032279;28;20108;-69
2022/03/03 04:16:45;;;;;;;6.03;3.70;;;;;;;18.24;21.18;98974.66;5032226;28;20120;-68
2022/03/03 04:19:11;;;;;;;9.55;3.88;;;;;;;18.24;21.44;98971.13;5032496;28;20032;-69
2022/03/03 04:21:36;;;;;;;8.73;3.88;;;;;;;18.24;21.47;98971.97;5031424;28;20037;-68
2022/03/03 04:24:02;;;;;;;8.43;4.18;;;;;;;18.23;21.44;98962.28;5031917;28;20544;-69
2022/03/03 04:26:28;;;;;;;5.78;3.67;;;;;;;18.28;21.16;98961.72;5031698;28;20083;-69
2022/03/03 04:28:54;;;;;;;9.25;3.80;;;;;;;18.32;21.25;98967.53;5022384;28;20034;-68
2022/03/03 04:31:19;;;;;;;9.93;4.20;;;;;;;18.35;21.10;98965.34;5011993;28;20057;-70
2022/03/03 04:33:46;;;;;;;11.18;3.97;;;;;;;18.40;20.92;98967.44;5029235;28;20060;-68
2022/03/03 04:36:11;;;;;;;8.00;4.82;;;;;;;18.36;20.90;98968.84;5031564;28;20034;-68
2022/03/03 04:38:37;;;;;;;6.78;3.78;;;;;;;18.35;20.93;98965.34;5032097;28;20043;-67
2022/03/03 04:41:03;;;;;;;5.90;4.07;;;;;;;18.33;21.05;98956.66;5031810;28;20025;-67
2022/03/03 04:43:28;;;;;;;9.70;3.78;;;;;;;18.34;21.18;98958.31;5031491;28;20415;-67
2022/03/03 04:45:54;;;;;;;10.60;5.35;;;;;;;18.32;21.03;98956.81;5031409;28;20029;-68
2022/03/03 04:48:19;;;;;;;7.93;3.88;;;;;;;18.34;20.99;98955.63;5031453;28;20030;-67
2022/03/03 04:50:45;;;;;;;8.88;3.85;;;;;;;18.38;21.21;98961.44;5034351;28;20381;-68
2022/03/03 04:53:11;;;;;;;9.63;4.30;;;;;;;18.36;21.18;98958.97;5041340;28;20040;-67
2022/03/03 04:55:36;;;;;;;8.25;3.70;;;;;;;18.39;21.09;98958.56;5055048;28;20051;-67
2022/03/03 04:58:02;;;;;;;9.38;3.80;;;;;;;18.38;21.18;98962.25;5038482;28;20033;-68
2022/03/03 05:00:28;;;;;;;5.80;3.38;;;;;;;18.40;21.13;98964.78;5034916;28;20068;-69
2022/03/03 05:02:54;;;;;;;12.68;4.07;;;;;;;18.45;21.29;98967.75;5044029;28;20056;-70
2022/03/03 05:05:19;;;;;;;7.95;3.58;;;;;;;18.47;21.01;98960.31;5033824;28;20458;-69
2022/03/03 05:07:45;;;;;;;7.63;3.53;;;;;;;18.48;21.05;98961.97;5040924;28;20060;-68
2022/03/03 05:10:11;;;;;;;7.72;3.65;;;;;;;18.51;21.01;98964.28;5035312;28;20412;-69
2022/03/03 05:12:36;;;;;;;10.88;3.47;;;;;;;18.54;21.25;98960.41;5038778;28;20025;-70
2022/03/03 05:15:03;;;;;;;6.95;3.80;;;;;;;18.55;21.11;98962.06;5035116;28;20075;-69
2022/03/03 05:17:29;;;;;;;9.27;4.55;;;;;;;18.51;20.90;98958.94;5030108;28;20513;-71
2022/03/03 05:19:55;;;;;;;12.57;3.90;;;;;;;18.55;20.96;98962.91;5015041;28;20095;-71
2022/03/03 05:22:21;;;;;;;7.20;4.15;;;;;;;18.56;20.79;98964.56;5022452;28;20029;-66
2022/03/03 05:24:50;;;;;;;10.40;4.32;;;;;;;18.57;20.84;98966.25;5034872;28;20107;-71
2022/03/03 05:27:16;;;;;;;9.57;4.25;;;;;;;18.61;20.71;98967.50;5034201;28;20124;-67
2022/03/03 05:29:41;;;;;;;11.57;4.22;;;;;;;18.65;20.82;98967.13;5045892;28;20121;-70
2022/03/03 05:32:07;;;;;;;5.45;3.53;;;;;;;18.68;20.84;98966.78;5045444;28;20029;-70
2022/03/03 05:34:33;;;;;;;11.50;4.15;;;;;;;18.69;20.99;98963.06;5048004;28;20063;-70
2022/03/03 05:37:00;;;;;;;10.90;4.85;;;;;;;18.71;20.73;98972.56;5040277;28;20029;-70
2022/03/03 05:39:27;;;;;;;14.18;4.28;;;;;;;18.73;20.88;98964.38;5033118;28;20037;-70
2022/03/03 05:41:55;;;;;;;15.75;4.47;;;;;;;18.74;21.08;98971.41;5034701;28;20079;-70
2022/03/03 05:44:21;;;;;;;10.93;4.80;;;;;;;18.75;20.85;98963.16;5034397;28;20033;-70
2022/03/03 05:46:48;;;;;;;12.15;4.50;;;;;;;18.79;21.01;98958.25;5033834;28;20115;-69
2022/03/03 05:49:16;;;;;;;10.82;4.18;;;;;;;18.83;20.99;98959.53;5033953;28;20477;-70
2022/03/03 05:51:41;;;;;;;5.10;3.20;;;;;;;18.86;20.96;98953.81;5034556;28;20037;-69
2022/03/03 05:54:07;;;;;;;6.80;3.80;;;;;;;18.86;21.02;98944.91;5034571;28;20106;-70
2022/03/03 05:56:37;;;;;;;7.28;4.13;;;;;;;18.89;21.14;98945.38;5031878;28;20527;-69
2022/03/03 05:59:07;;;;;;;6.07;3.42;;;;;;;18.91;20.97;98948.69;5034659;28;20034;-69
2022/03/03 06:01:36;;;;;;;7.70;4.60;;;;;;;18.95;21.13;98943.81;5034104;28;20044;-69
2022/03/03 06:04:03;;;;;;;11.30;4.13;;;;;;;18.97;21.31;98943.63;5033988;28;20026;-69
2022/03/03 06:06:34;;;;;;;5.82;3.95;;;;;;;18.99;21.27;98944.25;5034116;28;20026;-72
2022/03/03 06:09:14;;;;;;;13.20;4.50;;;;;;;18.99;21.40;98937.03;5036079;28;20140;-70
2022/03/03 06:11:54;;;;;;;7.20;4.07;;;;;;;19.04;21.29;98944.53;5034093;28;20498;-69
2022/03/03 06:14:27;;;;;;;8.68;3.67;;;;;;;19.07;21.41;98936.09;5033865;28;20033;-69
2022/03/03 06:16:54;;;;;;;6.55;3.97;;;;;;;19.10;21.28;98933.03;5033405;28;20039;-69
2022/03/03 06:19:20;;;;;;;6.45;3.90;;;;;;;19.14;21.22;98945.03;5034124;28;20041;-70
2022/03/03 06:21:46;;;;;;;8.90;4.70;;;;;;;19.16;21.38;98939.47;5033579;28;20047;-70
2022/03/03 06:24:12;;;;;;;7.47;4.22;;;;;;;19.16;20.94;98932.28;5033947;28;20045;-70
2022/03/03 06:26:37;;;;;;;13.18;4.43;;;;;;;19.19;21.36;98923.81;5034114;28;20037;-69
2022/03/03 06:29:03;;;;;;;12.38;4.13;;;;;;;19.21;21.51;98929.81;5033707;28;20443;-68
2022/03/03 06:31:29;;;;;;;11.02;4.05;;;;;;;19.21;21.29;98927.16;5033698;28;20037;-70
2022/03/03 06:33:55;;;;;;;11.95;4.53;;;;;;;19.24;21.36;98919.75;5050765;28;20119;-69
2022/03/03 06:36:20;;;;;;;10.45;5.15;;;;;;;19.23;21.28;98910.88;5053727;28;20033;-69
2022/03/03 06:38:46;;;;;;;13.57;4.10;;;;;;;19.22;21.22;98906.53;5040582;28;20041;-70
2022/03/03 06:41:11;;;;;;;10.77;4.40;;;;;;;19.24;21.34;98907.19;5033846;28;20037;-69
2022/03/03 06:43:37;;;;;;;10.48;4.10;;;;;;;19.24;21.12;98903.66;5034021;28;20041;-70
2022/03/03 06:46:04;;;;;;;8.25;4.25;;;;;;;19.29;21.19;98909.28;5027748;28;20449;-68
2022/03/03 06:48:29;;;;;;;13.40;4.13;;;;;;;19.30;21.26;98906.38;5029981;28;20040;-68
2022/03/03 06:50:55;;;;;;;7.25;3.90;;;;;;;19.33;21.03;98915.91;5033457;28;20033;-70
2022/03/03 06:53:30;;;;;;;9.50;5.10;;;;;;;19.33;21.23;98905.19;5032785;28;20497;-69
2022/03/03 06:56:03;;;;;;;8.43;4.65;;;;;;;19.34;21.22;98904.13;5033277;28;20045;-69
2022/03/03 06:58:30;;;;;;;13.15;4.30;;;;;;;19.35;20.98;98900.44;5032605;28;20033;-70
2022/03/03 07:00:57;;;;;;;10.43;4.80;;;;;;;19.36;20.98;98900.25;5033435;28;20033;-70
2022/03/03 07:03:24;;;;;;;8.40;4.50;;;;;;;19.33;20.99;98891.78;5032920;28;20111;-69
2022/03/03 07:05:51;;;;;;;12.77;4.18;;;;;;;19.40;20.89;98898.00;5032922;28;20536;-70
2022/03/03 07:08:19;;;;;;;13.65;4.05;;;;;;;19.40;21.09;98899.88;5032428;28;20103;-70
2022/03/03 07:10:46;;;;;;;7.90;4.63;;;;;;;19.40;21.00;98892.66;5032774;28;20072;-70
2022/03/03 07:13:14;;;;;;;10.93;4.20;;;;;;;19.42;21.02;98897.81;5031961;28;20052;-70
2022/03/03 07:15:46;;;;;;;9.20;3.65;;;;;;;19.43;20.90;98900.31;5033231;28;20029;-70
2022/03/03 07:18:17;;;;;;;8.85;3.78;;;;;;;19.42;21.20;98895.97;5032882;28;20043;-69
2022/03/03 07:21:12;;;;;;;9.73;3.58;;;;;;;19.49;21.95;98896.84;5033461;28;20485;-70
2022/03/03 07:23:40;;;;;;;9.50;4.00;;;;;;;19.63;22.21;98891.59;5014379;28;20049;-70
2022/03/03 07:26:11;;;;;;;11.20;4.72;;;;;;;19.77;22.30;98884.44;5032984;28;20129;-70
2022/03/03 07:28:44;;;;;;;7.57;3.60;;;;;;;19.90;22.24;98883.75;5031166;28;20029;-69
2022/03/03 07:31:12;;;;;;;7.20;4.03;;;;;;;20.04;22.34;98884.63;5032678;28;20509;-70
2022/03/03 07:33:53;;;;;;;6.00;4.05;;;;;;;20.13;22.05;98881.56;5032032;28;20029;-71
2022/03/03 07:36:24;;;;;;;10.57;3.97;;;;;;;20.26;22.17;98879.97;5032265;28;20037;-71
2022/03/03 07:39:01;;;;;;;9.02;4.97;;;;;;;20.38;21.83;98875.69;5032584;28;20037;-70
2022/03/03 07:41:28;;;;;;;9.05;4.50;;;;;;;20.41;21.36;98877.97;5032156;28;20049;-70
2022/03/03 07:43:55;;;;;;;9.50;4.43;;;;;;;20.38;21.13;98872.19;5032605;28;20033;-71
2022/03/03 07:46:22;;;;;;;10.75;4.75;;;;;;;20.32;20.81;98870.28;5032713;28;20487;-71
2022/03/03 07:48:50;;;;;;;11.45;4.38;;;;;;;20.28;21.01;98877.91;5032756;28;20029;-69
2022/03/03 07:51:18;;;;;;;7.30;3.83;;;;;;;20.26;20.98;98877.28;5032620;28;20030;-70
2022/03/03 07:53:43;;;;;;;16.33;5.40;;;;;;;20.20;21.16;98872.72;5032177;28;20030;-70
2022/03/03 07:56:12;;;;;;;8.90;4.22;;;;;;;20.19;21.02;98866.53;5032366;28;20036;-70
2022/03/03 07:58:43;;;;;;;7.40;4.10;;;;;;;20.16;21.09;98866.91;5031932;28;20117;-69
2022/03/03 08:01:12;;;;;;;8.95;4.22;;;;;;;20.16;21.08;98871.47;5032402;28;20045;-69
2022/03/03 08:03:44;;;;;;;9.85;4.32;;;;;;;20.16;21.01;98863.41;5032288;28;20029;-68
2022/03/03 08:06:12;;;;;;;7.55;3.70;;;;;;;20.17;20.89;98860.50;5032544;28;20033;-69
2022/03/03 08:08:38;;;;;;;11.10;4.72;;;;;;;20.16;20.83;98860.72;5040390;28;20053;-69
2022/03/03 08:11:07;;;;;;;7.68;3.95;;;;;;;20.16;20.83;98858.84;5032325;28;20091;-70
2022/03/03 08:13:33;;;;;;;10.55;3.78;;;;;;;20.14;20.83;98855.56;5032111;28;20034;-68
2022/03/03 08:15:59;;;;;;;7.82;4.28;;;;;;;20.14;20.83;98855.56;5032368;28;20036;-69
2022/03/03 08:18:31;;;;;;;6.15;3.40;;;;;;;20.11;20.92;98846.03;5031674;28;20079;-69
2022/03/03 08:21:02;;;;;;;6.47;4.40;;;;;;;20.11;20.88;98846.03;5032390;28;20121;-69
2022/03/03 08:23:29;;;;;;;7.00;3.92;;;;;;;20.12;20.75;98849.56;5032767;28;20041;-69
2022/03/03 08:25:55;;;;;;;6.90;3.20;;;;;;;20.12;20.78;98844.19;5035844;28;20029;-68
2022/03/03 08:28:25;;;;;;;7.75;4.25;;;;;;;20.10;20.67;98841.69;5035348;28;20087;-68
2022/03/03 08:31:04;;;;;;;8.20;3.78;;;;;;;20.13;20.72;98846.66;5036608;28;20029;-68
2022/03/03 08:33:32;;;;;;;6.30;3.70;;;;;;;20.14;20.71;98852.88;5036125;28;20493;-69
2022/03/03 08:36:00;;;;;;;9.82;3.88;;;;;;;20.18;21.42;98856.81;5035781;28;20155;-68
2022/03/03 08:38:37;;;;;;;5.50;3.05;;;;;;;20.20;20.77;98851.25;5035568;28;20033;-68
2022/03/03 08:41:04;;;;;;;8.27;3.75;;;;;;;20.20;20.67;98846.69;5036042;28;20053;-70
2022/03/03 08:43:33;;;;;;;6.78;3.03;;;;;;;20.21;20.50;98844.84;5035538;28;20507;-70
2022/03/03 08:46:05;;;;;;;5.90;3.20;;;;;;;20.23;20.67;98843.59;5036015;28;20033;-69
2022/03/03 08:48:32;;;;;;;7.18;2.90;;;;;;;20.24;20.62;98842.59;5035001;28;20463;-69
2022/03/03 08:50:59;;;;;;;7.38;3.10;;;;;;;20.25;20.29;98846.94;5035161;28;20037;-69
2022/03/03 08:53:25;;;;;;;9.43;3.00;;;;;;;20.24;20.68;98847.09;5035470;28;20098;-69
2022/03/03 08:55:53;;;;;;;4.80;2.47;;;;;;;20.22;20.36;98843.81;5035764;28;20037;-69
2022/03/03 08:58:20;;;;;;;6.00;2.65;;;;;;;20.18;20.55;98842.56;5031155;28;20556;-69
2022/03/03 09:00:48;;;;;;;5.88;2.63;;;;;;;20.20;20.60;98845.88;5035816;28;20076;-68
2022/03/03 09:03:15;;;;;;;6.50;2.78;;;;;;;20.17;20.52;98848.97;5035297;28;20041;-67
2022/03/03 09:05:41;;;;;;;4.25;3.30;;;;;;;20.16;20.53;98839.25;5035533;28;20065;-69
2022/03/03 09:08:07;;;;;;;4.95;3.25;;;;;;;20.13;20.40;98835.91;5034330;28;20049;-68
2022/03/03 09:10:33;;;;;;;4.03;2.35;;;;;;;20.16;20.61;98841.94;5035297;28;20038;-67
2022/03/03 09:13:00;;;;;;;5.68;2.38;;;;;;;20.17;20.68;98840.91;5035220;28;20037;-69
2022/03/03 09:15:30;;;;;;;5.53;1.92;;;;;;;20.16;20.52;98844.63;5035797;28;20063;-68
2022/03/03 09:17:56;;;;;;;8.70;2.50;;;;;;;20.16;20.70;98842.75;5034431;28;20033;-70
2022/03/03 09:20:21;;;;;;;7.78;2.70;;;;;;;20.12;20.66;98838.81;5035348;28;20037;-69
2022/03/03 09:22:47;;;;;;;5.80;2.55;;;;;;;20.14;20.76;98836.75;5034941;28;20045;-69
2022/03/03 09:25:13;;;;;;;7.95;2.90;;;;;;;20.13;20.49;98840.47;5035197;28;20037;-69
2022/03/03 09:27:38;;;;;;;6.57;3.05;;;;;;;20.13;20.60;98829.72;5039853;28;20059;-68
2022/03/03 09:30:06;;;;;;;7.40;3.17;;;;;;;20.16;20.64;98834.69;5055178;28;20162;-67
2022/03/03 09:32:32;;;;;;;13.18;2.95;;;;;;;20.15;20.49;98840.25;5055100;28;20120;-67
2022/03/03 09:34:57;;;;;;;5.85;2.70;;;;;;;20.13;20.42;98824.38;5046413;28;20116;-69
2022/03/03 09:37:23;;;;;;;6.03;3.03;;;;;;;20.13;20.34;98830.56;5032805;28;20036;-68
2022/03/03 09:39:50;;;;;;;5.70;3.00;;;;;;;20.14;20.56;98826.03;5034922;28;20447;-68
2022/03/03 09:42:16;;;;;;;8.95;4.00;;;;;;;20.15;20.74;98827.66;5035074;28;20477;-67
2022/03/03 09:44:42;;;;;;;7.40;2.80;;;;;;;20.17;20.62;98827.47;5034547;28;20041;-69
2022/03/03 09:47:11;;;;;;;4.60;2.80;;;;;;;20.18;20.45;98827.25;5019937;28;20088;-67
2022/03/03 09:49:37;;;;;;;4.35;2.78;;;;;;;20.20;20.64;98819.81;5033920;28;20404;-68
2022/03/03 09:52:14;;;;;;;8.13;3.25;;;;;;;20.21;20.64;98816.13;5034318;28;20033;-68
2022/03/03 09:54:41;;;;;;;5.88;2.35;;;;;;;20.21;20.76;98808.06;5034464;28;20064;-69
2022/03/03 09:57:06;;;;;;;6.25;2.75;;;;;;;20.22;20.70;98817.78;5033730;28;20029;-69
2022/03/03 09:59:32;;;;;;;6.53;3.58;;;;;;;20.21;20.69;98813.44;5034019;28;20097;-67
2022/03/03 10:02:06;;;;;;;6.65;3.15;;;;;;;20.19;20.86;98807.44;5034367;28;20030;-68
2022/03/03 10:04:32;;;;;;;5.57;2.63;;;;;;;20.18;20.67;98805.78;5034162;28;20035;-68
2022/03/03 10:07:03;;;;;;;6.15;3.25;;;;;;;20.19;20.67;98807.44;5034082;28;20025;-69
2022/03/03 10:09:29;;;;;;;;;;;;;;;20.11;20.90;98811.13;5036149;28;20049;-68
2022/03/03 10:12:22;;;;;;;8.32;2.80;;;;;;;20.10;20.96;98804.09;5035508;28;19921;-70
2022/03/03 10:14:48;;;;;;;4.50;2.58;;;;;;;19.87;21.41;98807.09;5011898;28;20425;-70
2022/03/03 10:17:15;;;;;;;6.03;2.78;;;;;;;19.58;21.49;98798.25;5020292;28;20029;-72
2022/03/03 10:19:55;;;;;;;6.35;2.33;;;;;;;19.39;21.61;98797.09;5034501;28;20435;-71
2022/03/03 10:22:45;;;;;;;3.30;1.80;;;;;;;19.16;21.87;98792.84;5033745;28;20092;-72
2022/03/03 10:25:14;;;;;;;4.55;2.85;;;;;;;19.00;22.09;98795.78;5034332;28;20056;-72
2022/03/03 10:27:41;;;;;;;5.20;2.58;;;;;;;18.90;22.08;98783.50;5031022;28;20029;-72
2022/03/03 10:30:09;;;;;;;5.05;2.67;;;;;;;18.87;22.11;98786.59;5034027;28;20037;-71
2022/03/03 10:32:39;;;;;;;6.75;3.05;;;;;;;18.88;22.06;98777.53;5033969;28;20029;-72
2022/03/03 10:35:20;;;;;;;7.53;2.63;;;;;;;18.90;22.11;98785.38;5030716;28;20179;-73
2022/03/03 10:37:47;;;;;;;5.88;3.13;;;;;;;18.84;22.10;98778.94;5023629;28;20040;-72
2022/03/03 10:40:17;;;;;;;7.03;3.17;;;;;;;18.80;22.03;98783.00;5033593;28;20037;-74
2022/03/03 10:42:50;;;;;;;6.50;2.58;;;;;;;18.75;22.05;98780.91;5033523;28;20079;-74
2022/03/03 10:45:19;;;;;;;6.40;2.88;;;;;;;18.75;22.12;98777.41;5034248;28;20037;-72
2022/03/03 10:48:06;;;;;;;5.38;2.80;;;;;;;18.68;22.19;98781.88;5036256;28;20033;-72
2022/03/03 10:50:44;;;;;;;15.45;4.03;;;;;;;18.57;22.15;98784.06;5044058;28;20041;-73
2022/03/03 10:53:10;;;;;;;8.00;3.45;;;;;;;18.48;22.25;98779.84;5033524;28;20044;-73
2022/03/03 10:55:35;;;;;;;5.20;3.00;;;;;;;18.40;22.14;98775.44;5034352;28;20033;-70
2022/03/03 10:58:01;;;;;;;5.90;3.33;;;;;;;18.32;22.44;98770.19;5032349;28;20469;-70
2022/03/03 11:00:30;;;;;;;6.07;3.20;;;;;;;18.30;22.56;98777.59;5033173;28;20517;-71
2022/03/03 11:03:01;;;;;;;6.03;3.45;;;;;;;18.25;22.57;98771.97;5033233;28;20487;-70
2022/03/03 11:05:29;;;;;;;11.75;3.75;;;;;;;18.23;22.54;98776.72;5032928;28;20029;-70
2022/03/03 11:07:56;;;;;;;10.65;3.72;;;;;;;18.25;22.99;98775.50;5032353;28;20576;-71
2022/03/03 11:10:30;;;;;;;16.10;3.78;;;;;;;18.32;22.66;98766.69;5033039;28;20537;-71
2022/03/03 11:12:56;;;;;;;5.78;3.58;;;;;;;18.36;22.55;98765.28;5030960;28;20041;-71
2022/03/03 11:15:24;;;;;;;5.32;3.17;;;;;;;18.41;22.52;98762.88;5032875;28;20416;-71
2022/03/03 11:17:52;;;;;;;10.15;3.33;;;;;;;18.47;22.47;98766.63;5028603;28;20115;-71
2022/03/03 11:20:19;;;;;;;5.40;3.33;;;;;;;18.47;22.64;98761.28;5033183;28;20033;-71
2022/03/03 11:22:46;;;;;;;6.60;3.60;;;;;;;18.51;22.87;98770.59;5032746;28;20390;-70
2022/03/03 11:25:17;;;;;;;11.75;4.57;;;;;;;18.53;22.84;98760.53;5032601;28;20064;-70
2022/03/03 11:27:44;;;;;;;9.20;4.18;;;;;;;18.52;22.91;98765.03;5032271;28;20116;-71
2022/03/03 11:30:30;;;;;;;7.53;4.40;;;;;;;18.51;22.95;98763.38;5032551;28;20550;-72
2022/03/03 11:33:26;;;;;;;8.80;4.85;;;;;;;18.50;23.16;98756.38;5032187;28;20041;-70
2022/03/03 11:36:09;;;;;;;12.43;5.13;;;;;;;18.50;23.38;98760.91;5032182;28;20037;-70